Time;durP1;ratioP1;P1;durP2;ratioP2;P2;SDS_P1;SDS_P2;PMS_P1;PMS_P2;Temp;Humidity;BMP_temperature;BMP_pressure;BME280_temperature;BME280_humidity;BME280_pressure;Samples;Min_cycle;Max_cycle;Signal;HPM_P1;HPM_P2
2023/12/03 00:02:03;;;;;;;2.20;1.38;;;22.90;51.40;;;;;;5039683;28;20033;-65
2023/12/03 00:04:29;;;;;;;2.20;1.38;;;22.80;51.50;;;;;;5038729;28;20044;-65
2023/12/03 00:06:55;;;;;;;2.10;1.30;;;22.80;51.50;;;;;;5038874;28;20024;-66
2023/12/03 00:09:20;;;;;;;2.15;1.30;;;22.80;51.50;;;;;;5036289;28;20496;-65
2023/12/03 00:11:46;;;;;;;2.10;1.30;;;22.80;51.50;;;;;;5038740;28;20024;-65
2023/12/03 00:14:11;;;;;;;2.13;1.30;;;22.80;51.50;;;;;;5038465;28;20025;-65
2023/12/03 00:16:37;;;;;;;1.98;1.48;;;22.80;51.50;;;;;;5039065;28;20434;-65
2023/12/03 00:19:03;;;;;;;2.85;1.52;;;22.80;51.50;;;;;;5037740;28;20030;-65
2023/12/03 00:21:28;;;;;;;1.90;1.30;;;22.70;51.40;;;;;;5037213;28;20079;-64
2023/12/03 00:23:54;;;;;;;1.92;1.25;;;22.70;51.40;;;;;;5036410;28;20120;-64
2023/12/03 00:26:20;;;;;;;2.03;1.23;;;22.70;51.50;;;;;;5038094;28;20521;-65
2023/12/03 00:28:45;;;;;;;2.10;1.40;;;22.70;51.50;;;;;;5038609;28;20025;-65
2023/12/03 00:31:11;;;;;;;1.92;1.30;;;22.70;51.50;;;;;;5038957;28;20029;-64
2023/12/03 00:33:37;;;;;;;1.90;1.38;;;22.60;52.00;;;;;;5038716;28;20025;-65
2023/12/03 00:36:02;;;;;;;2.13;1.27;;;22.60;51.50;;;;;;5038533;28;20040;-66
2023/12/03 00:38:28;;;;;;;2.28;1.38;;;22.60;51.50;;;;;;5038630;28;20020;-64
2023/12/03 00:40:53;;;;;;;2.10;1.10;;;22.60;51.50;;;;;;5037444;28;20033;-65
2023/12/03 00:43:19;;;;;;;1.92;1.20;;;22.50;51.50;;;;;;5037645;28;20470;-61
2023/12/03 00:45:45;;;;;;;1.95;1.30;;;22.50;51.50;;;;;;5039964;28;20025;-62
2023/12/03 00:48:10;;;;;;;1.73;1.20;;;22.50;51.50;;;;;;5036512;28;20413;-61
2023/12/03 00:50:36;;;;;;;2.85;1.40;;;22.50;51.50;;;;;;5038809;28;20040;-63
2023/12/03 00:53:01;;;;;;;1.60;1.13;;;22.40;51.50;;;;;;5038843;28;20060;-63
2023/12/03 00:55:27;;;;;;;1.92;1.20;;;22.40;51.50;;;;;;5037508;28;20469;-62
2023/12/03 00:57:53;;;;;;;1.95;1.23;;;22.40;51.60;;;;;;5039411;28;20033;-62
2023/12/03 01:00:18;;;;;;;1.60;1.20;;;22.30;51.50;;;;;;5040707;28;20108;-62
2023/12/03 01:02:44;;;;;;;2.20;1.40;;;22.30;51.60;;;;;;5039383;28;20131;-62
2023/12/03 01:05:09;;;;;;;2.10;1.50;;;22.30;51.60;;;;;;5043228;28;20068;-65
2023/12/03 01:07:35;;;;;;;1.85;1.10;;;22.30;51.60;;;;;;5039961;28;20037;-65
2023/12/03 01:10:01;;;;;;;2.08;1.25;;;22.20;51.60;;;;;;5038561;28;20367;-65
2023/12/03 01:12:26;;;;;;;1.80;1.20;;;22.20;51.60;;;;;;5041971;28;20033;-65
2023/12/03 01:14:52;;;;;;;1.42;1.10;;;22.20;51.70;;;;;;5041518;28;20225;-65
2023/12/03 01:17:17;;;;;;;2.30;1.20;;;22.20;51.70;;;;;;5042917;28;20025;-65
2023/12/03 01:19:43;;;;;;;1.65;1.08;;;22.10;51.60;;;;;;5041004;28;20043;-65
2023/12/03 01:22:09;;;;;;;2.28;1.15;;;22.10;51.70;;;;;;5041810;28;20072;-65
2023/12/03 01:24:34;;;;;;;2.22;1.30;;;22.10;51.70;;;;;;5038491;28;20029;-65
2023/12/03 01:27:00;;;;;;;1.45;1.10;;;22.10;51.80;;;;;;5039369;28;20144;-65
2023/12/03 01:29:25;;;;;;;1.60;1.20;;;22.10;51.80;;;;;;5041227;28;20082;-65
2023/12/03 01:31:51;;;;;;;2.08;1.20;;;22.00;51.80;;;;;;5039208;28;20033;-66
2023/12/03 01:34:16;;;;;;;1.50;1.10;;;22.00;51.80;;;;;;5041787;28;20158;-65
2023/12/03 01:36:42;;;;;;;1.73;1.20;;;21.90;51.80;;;;;;5040260;28;20076;-65
2023/12/03 01:39:08;;;;;;;1.50;1.10;;;21.90;51.80;;;;;;5040571;28;23752;-65
2023/12/03 01:41:34;;;;;;;1.35;1.00;;;21.90;51.80;;;;;;5040150;28;20442;-66
2023/12/03 01:43:59;;;;;;;1.75;1.20;;;21.90;51.90;;;;;;5040591;28;20105;-65
2023/12/03 01:46:26;;;;;;;2.03;1.10;;;21.90;51.90;;;;;;5039502;28;20766;-68
2023/12/03 01:48:53;;;;;;;1.65;1.10;;;21.80;51.90;;;;;;5041155;28;20037;-65
2023/12/03 01:51:19;;;;;;;1.90;1.20;;;21.80;51.90;;;;;;5040349;28;20032;-67
2023/12/03 01:53:46;;;;;;;1.58;1.10;;;21.80;52.00;;;;;;5040526;28;20501;-65
2023/12/03 01:56:12;;;;;;;1.70;1.10;;;21.80;52.00;;;;;;5037197;28;20037;-64
2023/12/03 01:58:39;;;;;;;1.20;1.00;;;21.70;52.00;;;;;;5039344;28;20445;-64
2023/12/03 02:01:06;;;;;;;1.60;1.20;;;21.70;52.00;;;;;;5040936;28;20029;-66
2023/12/03 02:03:31;;;;;;;2.15;1.35;;;21.70;52.00;;;;;;5039831;28;20024;-64
2023/12/03 02:06:08;;;;;;;1.70;1.10;;;21.70;52.10;;;;;;5040714;28;20504;-64
2023/12/03 02:08:34;;;;;;;1.33;1.00;;;21.70;52.10;;;;;;5040698;28;20392;-65
2023/12/03 02:11:01;;;;;;;1.35;1.10;;;21.60;52.10;;;;;;5039145;28;20067;-64
2023/12/03 02:13:29;;;;;;;1.70;1.10;;;21.60;52.10;;;;;;5042189;28;20021;-64
2023/12/03 02:15:55;;;;;;;1.60;1.10;;;21.60;52.20;;;;;;5041648;28;20310;-67
2023/12/03 02:18:21;;;;;;;1.05;0.90;;;21.60;52.20;;;;;;5040682;28;20037;-67
2023/12/03 02:20:47;;;;;;;1.58;1.10;;;21.50;52.20;;;;;;5040325;28;20048;-67
2023/12/03 02:23:14;;;;;;;1.63;1.20;;;21.50;52.20;;;;;;5040692;28;20423;-67
2023/12/03 02:25:41;;;;;;;1.33;1.05;;;21.50;52.30;;;;;;5036162;28;20036;-67
2023/12/03 02:28:06;;;;;;;1.50;1.15;;;21.50;52.30;;;;;;5037955;28;20183;-67
2023/12/03 02:30:32;;;;;;;1.80;1.10;;;21.50;52.30;;;;;;5042931;28;20712;-67
2023/12/03 02:32:58;;;;;;;1.50;1.13;;;21.40;52.30;;;;;;5040693;28;20550;-67
2023/12/03 02:35:23;;;;;;;1.75;1.10;;;21.40;52.30;;;;;;5040639;28;20067;-67
2023/12/03 02:37:49;;;;;;;2.08;1.30;;;21.40;52.30;;;;;;5041558;28;20120;-67
2023/12/03 02:40:15;;;;;;;2.30;1.40;;;21.40;52.40;;;;;;5036974;28;20105;-67
2023/12/03 02:42:41;;;;;;;1.35;1.00;;;21.40;52.40;;;;;;5038778;28;20435;-67
2023/12/03 02:45:08;;;;;;;1.70;1.08;;;21.30;52.40;;;;;;5039326;28;20084;-67
2023/12/03 02:47:34;;;;;;;1.60;1.17;;;21.30;52.40;;;;;;5038975;28;20123;-67
2023/12/03 02:50:00;;;;;;;1.33;0.95;;;21.30;52.50;;;;;;5038881;28;20473;-67
2023/12/03 02:52:25;;;;;;;1.42;1.00;;;21.30;52.50;;;;;;5037342;28;20038;-67
2023/12/03 02:54:51;;;;;;;1.85;1.10;;;21.30;52.50;;;;;;5038384;28;20496;-67
2023/12/03 02:57:16;;;;;;;1.40;1.10;;;21.20;52.50;;;;;;5040071;28;20022;-67
2023/12/03 02:59:42;;;;;;;1.52;1.20;;;21.30;52.60;;;;;;5040430;28;20030;-67
2023/12/03 03:02:07;;;;;;;1.35;1.00;;;21.20;52.50;;;;;;5039791;28;20404;-67
2023/12/03 03:04:33;;;;;;;1.23;1.00;;;21.20;52.60;;;;;;5038975;28;20036;-68
2023/12/03 03:06:59;;;;;;;1.20;1.00;;;21.20;52.60;;;;;;5039094;28;20489;-68
2023/12/03 03:09:24;;;;;;;1.40;1.10;;;21.20;52.60;;;;;;5038075;28;20116;-67
2023/12/03 03:11:50;;;;;;;1.63;1.10;;;21.10;52.60;;;;;;5037016;28;20560;-68
2023/12/03 03:14:16;;;;;;;1.45;1.00;;;21.10;52.60;;;;;;5054930;28;20075;-68
2023/12/03 03:16:42;;;;;;;1.60;1.13;;;21.10;52.60;;;;;;5037995;28;20029;-68
2023/12/03 03:19:07;;;;;;;1.38;1.00;;;21.10;52.70;;;;;;5037863;28;20079;-68
2023/12/03 03:21:38;;;;;;;1.35;1.02;;;21.10;52.70;;;;;;5037856;28;20113;-68
2023/12/03 03:24:04;;;;;;;1.20;0.90;;;21.10;52.70;;;;;;5037415;28;20021;-64
2023/12/03 03:26:29;;;;;;;1.35;1.10;;;21.00;52.70;;;;;;5037259;28;20068;-66
2023/12/03 03:28:55;;;;;;;1.50;1.00;;;21.00;52.70;;;;;;5035333;28;20159;-64
2023/12/03 03:31:20;;;;;;;1.98;1.00;;;21.00;52.70;;;;;;5039347;28;20518;-65
2023/12/03 03:33:46;;;;;;;1.48;1.10;;;21.00;52.70;;;;;;5037428;28;20034;-65
2023/12/03 03:36:15;;;;;;;1.27;0.95;;;21.00;52.70;;;;;;5037627;28;20021;-65
2023/12/03 03:38:44;;;;;;;;;;;21.00;52.80;;;;;;5038982;28;20021;-66
2023/12/03 03:41:10;;;;;;;1.33;1.00;;;21.00;52.80;;;;;;5035247;28;19932;-64
2023/12/03 03:43:36;;;;;;;1.23;1.00;;;20.90;52.70;;;;;;5038639;28;20473;-66
2023/12/03 03:46:01;;;;;;;1.02;0.90;;;21.00;52.80;;;;;;5038902;28;20035;-64
2023/12/03 03:48:27;;;;;;;1.35;0.90;;;20.90;52.80;;;;;;5038114;28;20068;-65
2023/12/03 03:50:53;;;;;;;1.20;0.90;;;20.90;52.80;;;;;;5038764;28;20029;-65
2023/12/03 03:53:18;;;;;;;1.20;1.00;;;20.90;52.90;;;;;;5037389;28;20021;-65
2023/12/03 03:55:44;;;;;;;1.20;0.88;;;20.90;52.90;;;;;;5037842;28;20033;-64
2023/12/03 03:58:10;;;;;;;1.48;1.10;;;20.90;52.90;;;;;;5038178;28;20025;-65
2023/12/03 04:00:35;;;;;;;1.50;1.00;;;20.90;52.90;;;;;;5040159;28;20025;-65
2023/12/03 04:03:01;;;;;;;1.40;1.00;;;20.90;52.90;;;;;;5038023;28;20026;-64
2023/12/03 04:05:26;;;;;;;0.98;0.80;;;20.80;52.90;;;;;;5040709;28;20029;-65
2023/12/03 04:07:52;;;;;;;1.60;1.00;;;20.80;52.90;;;;;;5040837;28;20021;-64
2023/12/03 04:10:17;;;;;;;1.60;0.90;;;20.80;53.00;;;;;;5038457;28;20038;-65
2023/12/03 04:12:43;;;;;;;0.93;0.80;;;20.80;52.90;;;;;;5038356;28;20124;-66
2023/12/03 04:15:09;;;;;;;0.80;0.80;;;20.80;53.00;;;;;;5038570;28;20037;-66
2023/12/03 04:17:35;;;;;;;1.08;0.90;;;20.80;53.00;;;;;;5038036;28;20500;-67
2023/12/03 04:20:01;;;;;;;1.15;0.90;;;20.80;53.00;;;;;;5035482;28;20025;-67
2023/12/03 04:22:26;;;;;;;1.48;0.95;;;20.80;53.10;;;;;;5034040;28;20160;-66
2023/12/03 04:24:52;;;;;;;2.40;1.00;;;20.80;53.10;;;;;;5036763;28;20037;-67
2023/12/03 04:27:18;;;;;;;1.38;1.00;;;20.70;53.00;;;;;;5035098;28;20373;-67
2023/12/03 04:29:43;;;;;;;2.00;0.82;;;20.70;53.00;;;;;;5037876;28;20161;-66
2023/12/03 04:32:09;;;;;;;1.10;0.80;;;20.70;53.10;;;;;;5038715;28;20160;-67
2023/12/03 04:34:35;;;;;;;0.90;0.80;;;20.70;53.10;;;;;;5039213;28;20021;-67
2023/12/03 04:37:01;;;;;;;0.70;0.70;;;20.70;53.10;;;;;;5041759;28;20429;-67
2023/12/03 04:39:26;;;;;;;1.10;1.00;;;20.70;53.10;;;;;;5041513;28;20586;-67
2023/12/03 04:41:52;;;;;;;0.88;0.70;;;20.60;53.10;;;;;;5042958;28;20381;-67
2023/12/03 04:44:18;;;;;;;0.80;0.70;;;20.60;53.10;;;;;;5042269;28;20035;-67
2023/12/03 04:46:43;;;;;;;1.10;0.90;;;20.60;53.20;;;;;;5041581;28;20029;-67
2023/12/03 04:49:09;;;;;;;0.60;0.60;;;20.60;53.20;;;;;;5040661;28;20037;-67
2023/12/03 04:51:35;;;;;;;1.08;0.90;;;20.60;53.30;;;;;;5042089;28;20140;-67
2023/12/03 04:54:00;;;;;;;1.30;0.80;;;20.60;53.30;;;;;;5044061;28;20036;-67
2023/12/03 04:56:26;;;;;;;0.80;0.80;;;20.60;53.30;;;;;;5039420;28;20158;-67
2023/12/03 04:58:51;;;;;;;1.30;0.90;;;20.50;53.30;;;;;;5040083;28;20024;-66
2023/12/03 05:01:18;;;;;;;0.93;0.80;;;20.60;53.30;;;;;;5042942;28;20028;-66
2023/12/03 05:03:46;;;;;;;0.68;0.63;;;20.50;53.30;;;;;;5043314;28;20468;-66
2023/12/03 05:06:12;;;;;;;1.17;0.80;;;20.50;53.40;;;;;;5055842;28;20037;-67
2023/12/03 05:08:38;;;;;;;1.42;0.82;;;20.50;53.40;;;;;;5040659;28;20034;-67
2023/12/03 05:11:05;;;;;;;0.75;0.70;;;20.50;53.40;;;;;;5040064;28;20021;-66
2023/12/03 05:13:33;;;;;;;0.80;0.70;;;20.50;53.50;;;;;;5042534;28;20048;-66
2023/12/03 05:16:04;;;;;;;0.85;0.80;;;20.40;53.40;;;;;;5039795;28;20397;-66
2023/12/03 05:18:30;;;;;;;1.02;0.80;;;20.50;53.50;;;;;;5040871;28;20491;-66
2023/12/03 05:20:57;;;;;;;0.90;0.80;;;20.40;53.50;;;;;;5041051;28;20025;-66
2023/12/03 05:23:23;;;;;;;1.20;0.75;;;20.40;53.60;;;;;;5040671;28;20030;-67
2023/12/03 05:25:48;;;;;;;0.77;0.75;;;20.40;53.60;;;;;;5039572;28;20608;-66
2023/12/03 05:28:14;;;;;;;0.95;0.80;;;20.40;53.60;;;;;;5041485;28;20035;-67
2023/12/03 05:30:40;;;;;;;0.77;0.77;;;20.40;53.60;;;;;;5040987;28;20028;-66
2023/12/03 05:33:05;;;;;;;1.00;0.80;;;20.40;53.60;;;;;;5043347;28;20030;-66
2023/12/03 05:35:31;;;;;;;1.00;0.80;;;20.30;53.60;;;;;;5040969;28;20030;-67
2023/12/03 05:37:57;;;;;;;0.90;0.77;;;20.40;53.70;;;;;;5043794;28;20032;-67
2023/12/03 05:40:22;;;;;;;0.90;0.75;;;20.30;53.60;;;;;;5040146;28;20028;-66
2023/12/03 05:42:48;;;;;;;0.70;0.70;;;20.30;53.70;;;;;;5038902;28;20366;-67
2023/12/03 05:45:14;;;;;;;0.95;0.70;;;20.30;53.70;;;;;;5039957;28;20496;-66
2023/12/03 05:47:40;;;;;;;1.05;0.80;;;20.30;53.70;;;;;;5042355;28;20033;-66
2023/12/03 05:50:06;;;;;;;0.70;0.70;;;20.30;53.70;;;;;;5040752;28;20051;-66
2023/12/03 05:52:32;;;;;;;0.90;0.73;;;20.30;53.80;;;;;;5040492;28;20026;-67
2023/12/03 05:54:57;;;;;;;1.40;1.00;;;20.30;53.80;;;;;;5041164;28;20444;-66
2023/12/03 05:57:23;;;;;;;0.85;0.80;;;20.30;53.90;;;;;;5039347;28;20116;-66
2023/12/03 05:59:50;;;;;;;0.85;0.80;;;20.30;53.90;;;;;;5042020;28;20021;-66
2023/12/03 06:02:16;;;;;;;1.02;0.80;;;20.30;53.90;;;;;;5039691;28;20132;-66
2023/12/03 06:04:42;;;;;;;1.05;0.85;;;20.20;53.80;;;;;;5039917;28;20111;-66
2023/12/03 06:07:08;;;;;;;1.30;0.90;;;20.30;53.90;;;;;;5040111;28;20072;-66
2023/12/03 06:09:33;;;;;;;1.20;0.98;;;20.20;53.90;;;;;;5040383;28;20477;-66
2023/12/03 06:11:59;;;;;;;0.90;0.80;;;20.30;53.90;;;;;;5038097;28;20194;-66
2023/12/03 06:14:26;;;;;;;1.10;1.00;;;20.30;53.90;;;;;;5040586;28;20025;-66
2023/12/03 06:16:51;;;;;;;1.02;0.82;;;20.20;54.40;;;;;;5038817;28;20040;-66
2023/12/03 06:19:17;;;;;;;0.98;0.80;;;20.20;54.00;;;;;;5038436;28;20461;-66
2023/12/03 06:21:43;;;;;;;1.00;0.77;;;20.20;53.90;;;;;;5039695;28;20032;-66
2023/12/03 06:24:08;;;;;;;1.05;0.85;;;20.20;54.00;;;;;;5039293;28;20884;-66
2023/12/03 06:26:34;;;;;;;1.02;0.90;;;20.20;54.00;;;;;;5039587;28;20036;-66
2023/12/03 06:29:00;;;;;;;1.42;1.00;;;20.20;54.00;;;;;;5038653;28;20037;-66
2023/12/03 06:31:26;;;;;;;1.33;1.00;;;20.20;54.00;;;;;;5039778;28;20086;-66
2023/12/03 06:33:52;;;;;;;1.30;0.90;;;20.20;54.00;;;;;;5040195;28;20512;-68
2023/12/03 06:36:18;;;;;;;1.00;0.80;;;20.20;54.00;;;;;;5042505;28;20034;-68
2023/12/03 06:38:44;;;;;;;0.80;0.80;;;20.20;54.00;;;;;;5040389;28;20025;-66
2023/12/03 06:41:10;;;;;;;1.25;0.80;;;20.20;54.10;;;;;;5038243;28;20025;-67
2023/12/03 06:43:35;;;;;;;0.85;0.75;;;20.20;54.10;;;;;;5038934;28;20036;-71
2023/12/03 06:46:01;;;;;;;1.00;0.80;;;20.20;54.10;;;;;;5040432;28;20033;-67
2023/12/03 06:48:27;;;;;;;1.17;1.00;;;20.20;54.10;;;;;;5041257;28;20028;-68
2023/12/03 06:50:53;;;;;;;1.45;1.00;;;20.20;54.10;;;;;;5040135;28;20080;-68
2023/12/03 06:53:19;;;;;;;1.23;0.98;;;20.20;54.10;;;;;;5038942;28;20032;-67
2023/12/03 06:55:44;;;;;;;1.08;0.90;;;20.10;54.10;;;;;;5042972;28;20134;-66
2023/12/03 06:58:11;;;;;;;1.02;0.82;;;20.20;54.10;;;;;;5038580;28;20576;-66
2023/12/03 07:00:36;;;;;;;0.98;0.82;;;20.10;54.10;;;;;;5039186;28;20116;-66
2023/12/03 07:03:02;;;;;;;1.00;0.80;;;20.10;54.10;;;;;;5039098;28;20112;-68
2023/12/03 07:05:27;;;;;;;1.50;1.00;;;20.10;54.10;;;;;;5039313;28;20140;-67
2023/12/03 07:07:53;;;;;;;1.70;1.10;;;20.10;54.10;;;;;;5040864;28;20025;-67
2023/12/03 07:10:19;;;;;;;0.90;0.80;;;20.10;54.20;;;;;;5041105;28;20044;-68
2023/12/03 07:12:44;;;;;;;1.15;1.00;;;20.10;54.20;;;;;;5036578;28;20036;-68
2023/12/03 07:15:10;;;;;;;1.17;0.80;;;20.10;54.20;;;;;;5038544;28;20028;-67
2023/12/03 07:17:39;;;;;;;1.02;0.80;;;20.10;54.20;;;;;;5038992;28;20020;-67
2023/12/03 07:20:05;;;;;;;1.17;0.90;;;20.10;54.20;;;;;;5039455;28;20416;-66
2023/12/03 07:22:31;;;;;;;0.80;0.77;;;20.10;54.20;;;;;;5039931;28;20025;-66
2023/12/03 07:24:56;;;;;;;1.35;0.98;;;20.10;54.20;;;;;;5040487;28;20044;-66
2023/12/03 07:27:22;;;;;;;1.10;0.90;;;20.10;54.20;;;;;;5040515;28;20059;-68
2023/12/03 07:29:54;;;;;;;1.00;0.80;;;20.10;54.30;;;;;;5036955;28;20470;-67
2023/12/03 07:32:20;;;;;;;1.25;0.98;;;20.10;54.20;;;;;;5038662;28;20066;-66
2023/12/03 07:34:45;;;;;;;1.33;1.00;;;20.10;54.20;;;;;;5038600;28;20471;-66
2023/12/03 07:37:12;;;;;;;1.17;0.88;;;20.10;54.20;;;;;;5038141;28;20025;-63
2023/12/03 07:39:39;;;;;;;1.23;0.70;;;20.10;54.30;;;;;;5039069;28;20036;-65
2023/12/03 07:42:04;;;;;;;0.90;0.80;;;20.00;54.20;;;;;;5038339;28;20016;-65
2023/12/03 07:44:30;;;;;;;1.13;0.88;;;20.00;54.20;;;;;;5039327;28;20734;-65
2023/12/03 07:46:56;;;;;;;1.00;0.80;;;20.10;54.30;;;;;;5038505;28;20021;-67
2023/12/03 07:49:21;;;;;;;1.20;0.90;;;20.00;54.20;;;;;;5039477;28;20101;-65
2023/12/03 07:51:47;;;;;;;0.95;0.80;;;20.00;54.20;;;;;;5046307;28;20037;-65
2023/12/03 07:54:13;;;;;;;1.40;0.90;;;20.00;54.20;;;;;;5036662;28;20033;-65
2023/12/03 07:56:40;;;;;;;1.23;0.85;;;20.00;54.20;;;;;;5036974;28;20432;-66
2023/12/03 07:59:06;;;;;;;0.95;0.80;;;20.00;54.80;;;;;;5038863;28;20518;-65
2023/12/03 08:01:32;;;;;;;1.58;1.00;;;20.00;54.20;;;;;;5037754;28;20811;-64
2023/12/03 08:03:58;;;;;;;1.15;0.90;;;20.00;54.30;;;;;;5039012;28;20026;-66
2023/12/03 08:06:24;;;;;;;0.90;0.80;;;20.00;54.30;;;;;;5038800;28;20033;-66
2023/12/03 08:08:52;;;;;;;2.00;0.98;;;20.00;54.30;;;;;;5040163;28;20115;-65
2023/12/03 08:11:18;;;;;;;1.33;0.90;;;20.00;54.30;;;;;;5041549;28;20028;-65
2023/12/03 08:13:44;;;;;;;1.55;0.88;;;20.00;54.30;;;;;;5041788;28;20088;-65
2023/12/03 08:16:09;;;;;;;1.13;0.90;;;20.00;54.30;;;;;;5043391;28;20033;-65
2023/12/03 08:18:35;;;;;;;0.98;0.85;;;20.00;54.30;;;;;;5040839;28;20463;-65
2023/12/03 08:21:01;;;;;;;1.27;1.00;;;20.00;54.30;;;;;;5042236;28;20044;-65
2023/12/03 08:23:26;;;;;;;2.13;0.90;;;20.00;54.80;;;;;;5041576;28;20027;-65
2023/12/03 08:25:52;;;;;;;1.13;0.82;;;20.00;54.30;;;;;;5041649;28;20564;-65
2023/12/03 08:28:18;;;;;;;0.80;0.73;;;20.00;54.30;;;;;;5042454;28;20037;-66
2023/12/03 08:30:44;;;;;;;1.13;1.00;;;20.00;54.30;;;;;;5043983;28;20040;-65
2023/12/03 08:33:10;;;;;;;1.08;0.80;;;19.90;54.30;;;;;;5041487;28;20025;-66
2023/12/03 08:35:35;;;;;;;1.20;0.90;;;20.00;54.30;;;;;;5041689;28;20026;-64
2023/12/03 08:38:01;;;;;;;1.58;1.05;;;19.90;54.30;;;;;;5041435;28;20389;-65
2023/12/03 08:40:27;;;;;;;0.88;0.80;;;19.90;54.30;;;;;;5042216;28;20037;-65
2023/12/03 08:42:52;;;;;;;1.20;0.80;;;19.90;54.30;;;;;;5039493;28;20527;-66
2023/12/03 08:45:21;;;;;;;1.00;0.80;;;19.90;54.30;;;;;;5041196;28;20078;-66
2023/12/03 08:47:47;;;;;;;1.20;0.88;;;19.90;54.30;;;;;;5041983;28;20444;-64
2023/12/03 08:50:12;;;;;;;1.23;0.93;;;19.90;54.40;;;;;;5041646;28;20052;-65
2023/12/03 08:52:38;;;;;;;1.50;0.98;;;19.90;54.30;;;;;;5041765;28;20129;-66
2023/12/03 08:55:04;;;;;;;1.23;0.85;;;19.90;54.30;;;;;;5043436;28;20025;-66
2023/12/03 08:57:30;;;;;;;1.10;0.90;;;19.90;54.40;;;;;;5040644;28;21017;-66
2023/12/03 08:59:55;;;;;;;1.25;0.80;;;19.90;54.30;;;;;;5041411;28;20032;-66
2023/12/03 09:02:21;;;;;;;2.00;1.00;;;19.90;54.40;;;;;;5040281;28;20132;-65
2023/12/03 09:04:47;;;;;;;1.83;1.00;;;19.90;54.40;;;;;;5041195;28;20025;-66
2023/12/03 09:07:13;;;;;;;0.85;0.80;;;19.90;54.40;;;;;;5038808;28;20487;-66
2023/12/03 09:09:42;;;;;;;1.42;0.95;;;19.90;54.40;;;;;;5040039;28;20175;-66
2023/12/03 09:12:08;;;;;;;1.15;0.88;;;19.90;54.40;;;;;;5041206;28;20393;-66
2023/12/03 09:14:34;;;;;;;1.20;0.90;;;19.90;54.40;;;;;;5038682;28;20033;-66
2023/12/03 09:17:00;;;;;;;1.55;1.10;;;19.90;54.40;;;;;;5041328;28;20030;-70
2023/12/03 09:19:25;;;;;;;1.30;0.90;;;19.80;54.30;;;;;;5039186;28;20049;-69
2023/12/03 09:21:51;;;;;;;1.75;1.00;;;19.90;54.40;;;;;;5040390;28;20043;-70
2023/12/03 09:24:17;;;;;;;2.97;1.08;;;19.90;54.40;;;;;;5040451;28;20030;-69
2023/12/03 09:26:44;;;;;;;1.40;0.98;;;19.90;54.40;;;;;;5040797;28;20591;-70
2023/12/03 09:29:11;;;;;;;1.63;0.90;;;19.90;54.40;;;;;;5037313;28;20071;-70
2023/12/03 09:31:40;;;;;;;1.42;0.90;;;19.90;54.40;;;;;;5041183;28;20477;-70
2023/12/03 09:34:07;;;;;;;1.35;1.00;;;19.90;54.40;;;;;;5038543;28;20112;-70
2023/12/03 09:36:33;;;;;;;1.30;0.90;;;19.80;54.40;;;;;;5039958;28;20052;-69
2023/12/03 09:38:59;;;;;;;1.52;1.10;;;19.80;54.40;;;;;;5037820;28;20018;-68
2023/12/03 09:41:26;;;;;;;1.30;0.90;;;19.80;54.60;;;;;;5039639;28;20109;-68
2023/12/03 09:43:58;;;;;;;1.15;0.90;;;19.90;54.50;;;;;;5037746;28;20100;-68
2023/12/03 09:46:28;;;;;;;1.30;1.05;;;19.90;54.50;;;;;;5040834;28;20407;-68
2023/12/03 09:48:54;;;;;;;;;;;19.80;54.40;;;;;;5041609;28;20029;-68
2023/12/03 09:51:20;;;;;;;1.30;1.00;;;19.80;54.40;;;;;;5039745;28;19924;-68
2023/12/03 09:53:48;;;;;;;1.70;1.00;;;19.80;54.40;;;;;;5040020;28;20456;-68
2023/12/03 09:56:16;;;;;;;1.27;1.00;;;19.80;54.40;;;;;;5042886;28;20026;-68
2023/12/03 09:58:45;;;;;;;1.73;0.90;;;19.80;54.50;;;;;;5038830;28;20043;-68
2023/12/03 10:01:12;;;;;;;;;;;19.80;54.50;;;;;;5040786;28;20094;-68
2023/12/03 10:03:38;;;;;;;1.30;0.85;;;19.80;54.50;;;;;;5041552;28;19905;-69
2023/12/03 10:06:04;;;;;;;1.58;1.05;;;19.80;54.50;;;;;;5040376;28;20031;-68
2023/12/03 10:08:34;;;;;;;1.27;1.00;;;19.80;54.50;;;;;;5039324;28;20043;-68
2023/12/03 10:11:02;;;;;;;1.38;1.00;;;19.80;54.50;;;;;;5038073;28;20064;-69
2023/12/03 10:13:29;;;;;;;1.52;1.10;;;19.80;54.50;;;;;;5069647;28;20025;-69
2023/12/03 10:15:56;;;;;;;1.45;0.98;;;19.80;54.50;;;;;;5039347;28;20022;-68
2023/12/03 10:18:22;;;;;;;1.58;0.95;;;19.80;54.50;;;;;;5039109;28;20022;-68
2023/12/03 10:20:47;;;;;;;1.27;0.95;;;19.80;54.60;;;;;;5041838;28;20465;-68
2023/12/03 10:23:15;;;;;;;1.45;0.95;;;19.80;54.60;;;;;;5039953;28;20084;-68
2023/12/03 10:25:40;;;;;;;1.60;1.10;;;19.80;54.60;;;;;;5040327;28;20021;-65
2023/12/03 10:28:08;;;;;;;1.65;1.10;;;19.80;54.60;;;;;;5038319;28;20036;-64
2023/12/03 10:30:35;;;;;;;1.83;1.10;;;19.80;54.60;;;;;;5038863;28;20029;-65
2023/12/03 10:33:01;;;;;;;1.17;0.90;;;19.80;54.60;;;;;;5039576;28;20566;-64
2023/12/03 10:35:36;;;;;;;1.00;0.88;;;19.80;54.60;;;;;;5040714;28;20035;-65
2023/12/03 10:38:05;;;;;;;1.90;1.10;;;19.80;55.20;;;;;;5040592;28;20524;-64
2023/12/03 10:40:33;;;;;;;2.08;0.93;;;19.80;54.60;;;;;;5040419;28;20025;-66
2023/12/03 10:43:01;;;;;;;1.45;1.00;;;19.80;54.70;;;;;;5038670;28;20029;-68
2023/12/03 10:45:28;;;;;;;1.20;1.00;;;19.80;54.70;;;;;;5040299;28;20196;-65
2023/12/03 10:48:00;;;;;;;1.00;0.90;;;19.80;55.20;;;;;;5040774;28;20374;-65
2023/12/03 10:50:28;;;;;;;1.35;1.00;;;19.80;54.70;;;;;;5038820;28;20033;-65
2023/12/03 10:53:00;;;;;;;1.73;1.20;;;19.80;54.70;;;;;;5039498;28;20036;-63
2023/12/03 10:55:25;;;;;;;1.63;0.95;;;19.70;54.70;;;;;;5037615;28;20472;-63
2023/12/03 10:58:02;;;;;;;1.40;0.90;;;19.80;54.80;;;;;;5039079;28;20040;-63
2023/12/03 11:00:38;;;;;;;1.92;1.00;;;19.80;54.80;;;;;;5039997;28;20039;-64
2023/12/03 11:03:20;;;;;;;1.25;0.90;;;19.70;54.80;;;;;;5040321;28;20086;-65
2023/12/03 11:05:52;;;;;;;1.38;0.95;;;19.70;54.80;;;;;;5037411;28;20484;-65
2023/12/03 11:08:21;;;;;;;1.60;1.00;;;19.70;54.80;;;;;;5039163;28;20026;-64
2023/12/03 11:10:48;;;;;;;1.47;1.07;;;19.70;54.80;;;;;;5039079;28;20116;-65
2023/12/03 11:13:16;;;;;;;2.53;1.02;;;19.70;54.80;;;;;;5038559;28;20033;-64
2023/12/03 11:15:44;;;;;;;1.77;1.20;;;19.70;54.90;;;;;;5040186;28;20985;-67
2023/12/03 11:18:11;;;;;;;1.90;1.10;;;19.70;54.80;;;;;;5040024;28;20393;-68
2023/12/03 11:20:39;;;;;;;2.25;1.20;;;19.70;54.90;;;;;;5038395;28;20163;-67
2023/12/03 11:23:42;;;;;;;2.10;1.10;;;19.70;54.90;;;;;;5039222;28;20036;-67
2023/12/03 11:26:15;;;;;;;1.80;1.10;;;19.70;55.00;;;;;;5040954;28;20082;-68
2023/12/03 11:28:51;;;;;;;1.65;1.00;;;19.70;55.00;;;;;;5035881;28;20024;-68
2023/12/03 11:31:16;;;;;;;2.10;1.08;;;19.70;55.10;;;;;;5039230;28;20107;-69
2023/12/03 11:33:51;;;;;;;2.03;1.00;;;19.80;55.10;;;;;;5040082;28;20108;-69
2023/12/03 11:36:17;;;;;;;2.28;1.50;;;19.70;55.10;;;;;;5039552;28;20032;-66
2023/12/03 11:38:42;;;;;;;2.50;1.30;;;19.70;55.60;;;;;;5038038;28;20034;-66
2023/12/03 11:41:08;;;;;;;2.22;1.30;;;19.70;55.10;;;;;;5039611;28;20048;-66
2023/12/03 11:43:35;;;;;;;3.00;1.20;;;19.70;55.10;;;;;;5035460;28;20034;-66
2023/12/03 11:46:01;;;;;;;3.20;1.33;;;19.70;55.20;;;;;;5038769;28;20029;-66
2023/12/03 11:48:27;;;;;;;2.45;1.30;;;19.70;55.20;;;;;;5037104;28;20037;-67
2023/12/03 11:50:55;;;;;;;1.98;1.25;;;19.70;55.20;;;;;;5037902;28;20501;-66
2023/12/03 11:53:57;;;;;;;2.28;1.50;;;19.80;55.30;;;;;;5045590;28;20142;-62
2023/12/03 11:56:23;;;;;;;2.45;1.38;;;19.70;55.30;;;;;;5038894;28;20029;-66
2023/12/03 11:58:50;;;;;;;2.65;1.40;;;19.70;55.30;;;;;;5037773;28;20366;-66
2023/12/03 12:01:16;;;;;;;2.15;1.45;;;19.70;55.80;;;;;;5038910;28;20032;-66
2023/12/03 12:03:41;;;;;;;2.10;1.30;;;19.70;55.50;;;;;;5037554;28;20029;-66
2023/12/03 12:06:08;;;;;;;3.83;1.70;;;19.70;55.60;;;;;;5037850;28;20044;-66
2023/12/03 12:08:33;;;;;;;3.03;1.70;;;19.70;55.50;;;;;;5040038;28;20512;-66
2023/12/03 12:10:59;;;;;;;3.17;1.50;;;19.80;55.60;;;;;;5038929;28;20026;-66
2023/12/03 12:13:25;;;;;;;2.38;1.33;;;19.80;55.50;;;;;;5038085;28;20095;-66
2023/12/03 12:15:54;;;;;;;2.08;1.27;;;19.80;55.40;;;;;;5037762;28;20029;-66
2023/12/03 12:18:22;;;;;;;2.05;1.25;;;19.80;55.40;;;;;;5038304;28;20041;-66
2023/12/03 12:20:48;;;;;;;2.28;1.20;;;19.90;55.40;;;;;;5040745;28;20021;-66
2023/12/03 12:23:14;;;;;;;2.67;1.20;;;19.90;55.40;;;;;;5039460;28;20044;-66
2023/12/03 12:25:41;;;;;;;2.17;1.20;;;19.90;55.30;;;;;;5038616;28;20488;-69
2023/12/03 12:28:07;;;;;;;2.38;1.40;;;19.90;55.20;;;;;;5051771;28;20061;-66
2023/12/03 12:30:33;;;;;;;2.30;1.38;;;20.00;55.40;;;;;;5036746;28;20076;-66
2023/12/03 12:33:01;;;;;;;2.47;1.30;;;20.10;55.60;;;;;;5037908;28;20036;-66
2023/12/03 12:35:26;;;;;;;2.50;1.30;;;20.20;55.30;;;;;;5040225;28;20109;-66
2023/12/03 12:38:06;;;;;;;2.85;1.58;;;20.40;55.10;;;;;;5038393;28;20564;-66
2023/12/03 12:40:37;;;;;;;2.58;1.33;;;20.50;55.00;;;;;;5037225;28;20029;-66
2023/12/03 12:43:08;;;;;;;2.08;1.17;;;20.70;54.70;;;;;;5068786;28;20033;-65
2023/12/03 12:45:34;;;;;;;2.50;1.15;;;20.80;54.50;;;;;;5037674;28;20033;-65